Time;durP1;ratioP1;P1;durP2;ratioP2;P2;SDS_P1;SDS_P2;PMS_P1;PMS_P2;Temp;Humidity;BMP_temperature;BMP_pressure;BME280_temperature;BME280_humidity;BME280_pressure;Samples;Min_cycle;Max_cycle;Signal;HPM_P1;HPM_P2
2024/01/11 00:01:14;;;;;;;16.67;6.10;;;-5.30;99.90;;;;;;5047299;28;20051;-75
2024/01/11 00:03:39;;;;;;;12.05;5.70;;;-5.30;99.90;;;;;;5043947;28;20040;-75
2024/01/11 00:06:05;;;;;;;9.38;4.82;;;-5.30;99.90;;;;;;5046269;28;20079;-75
2024/01/11 00:08:31;;;;;;;9.32;3.78;;;-5.30;99.90;;;;;;5025619;28;20056;-75
2024/01/11 00:10:57;;;;;;;14.98;7.10;;;-5.40;99.90;;;;;;5045510;28;20051;-75
2024/01/11 00:13:23;;;;;;;12.52;5.45;;;-5.40;99.90;;;;;;5040260;28;20044;-75
2024/01/11 00:15:48;;;;;;;6.43;4.78;;;-5.40;99.90;;;;;;5049997;28;20123;-75
2024/01/11 00:18:14;;;;;;;10.38;5.35;;;-5.40;99.90;;;;;;5026533;28;20052;-75
2024/01/11 00:20:40;;;;;;;14.75;7.18;;;-5.40;99.90;;;;;;5038839;28;20554;-75
2024/01/11 00:23:06;;;;;;;7.22;3.90;;;-5.40;99.90;;;;;;5044817;28;20127;-75
2024/01/11 00:25:31;;;;;;;11.93;5.03;;;-5.40;99.90;;;;;;5044689;28;20044;-75
2024/01/11 00:27:57;;;;;;;11.73;5.57;;;-5.50;99.90;;;;;;5024674;28;20064;-75
2024/01/11 00:30:23;;;;;;;8.18;3.83;;;-5.50;99.90;;;;;;5031634;28;20103;-75
2024/01/11 00:32:49;;;;;;;4.35;3.42;;;-5.50;99.90;;;;;;5027752;28;20612;-75
2024/01/11 00:35:14;;;;;;;11.85;5.47;;;-5.50;99.90;;;;;;5030349;28;20033;-75
2024/01/11 00:37:41;;;;;;;11.60;4.47;;;-5.50;99.90;;;;;;5045325;28;20543;-75
2024/01/11 00:40:07;;;;;;;9.25;4.28;;;-5.60;99.90;;;;;;5024564;28;20577;-75
2024/01/11 00:42:34;;;;;;;8.55;5.22;;;-5.60;99.90;;;;;;5043420;28;20048;-75
2024/01/11 00:45:00;;;;;;;12.95;4.90;;;-5.60;99.90;;;;;;5033668;28;20032;-75
2024/01/11 00:47:27;;;;;;;14.85;5.20;;;-5.60;99.90;;;;;;5040632;28;20079;-75
2024/01/11 00:49:52;;;;;;;12.75;5.20;;;-5.60;99.90;;;;;;5041503;28;20037;-75
2024/01/11 00:52:18;;;;;;;11.57;6.55;;;-5.60;99.90;;;;;;5045679;28;20540;-75
2024/01/11 00:54:44;;;;;;;8.82;5.25;;;-5.60;99.90;;;;;;5044301;28;20132;-75
2024/01/11 00:57:10;;;;;;;8.70;4.35;;;-5.60;99.90;;;;;;5024415;28;20037;-75
2024/01/11 00:59:35;;;;;;;11.85;5.68;;;-5.60;99.90;;;;;;5044564;28;20078;-75
2024/01/11 01:02:01;;;;;;;13.57;5.90;;;-5.60;99.90;;;;;;5024384;28;20078;-75
2024/01/11 01:04:27;;;;;;;10.70;4.65;;;-5.60;99.90;;;;;;5044307;28;20624;-75
2024/01/11 01:06:53;;;;;;;17.73;6.30;;;-5.60;99.90;;;;;;5048330;28;20040;-75
2024/01/11 01:09:19;;;;;;;6.35;4.47;;;-5.70;99.90;;;;;;5044011;28;20460;-75
2024/01/11 01:11:44;;;;;;;14.30;6.00;;;-5.60;99.90;;;;;;5043750;28;20040;-75
2024/01/11 01:14:10;;;;;;;9.43;4.32;;;-5.60;99.90;;;;;;5039813;28;20043;-75
2024/01/11 01:16:36;;;;;;;7.93;4.78;;;-5.60;99.90;;;;;;5047806;28;20053;-75
2024/01/11 01:19:02;;;;;;;8.90;4.07;;;-5.60;99.90;;;;;;5034120;28;20045;-75
2024/01/11 01:21:28;;;;;;;7.07;4.93;;;-5.60;99.90;;;;;;5050198;28;20045;-75
2024/01/11 01:23:53;;;;;;;8.45;4.72;;;-5.60;99.90;;;;;;5031254;28;20451;-75
2024/01/11 01:26:20;;;;;;;11.30;5.53;;;-5.60;99.90;;;;;;5025046;28;20029;-75
2024/01/11 01:28:45;;;;;;;7.68;3.83;;;-5.60;99.90;;;;;;5026915;28;20041;-75
2024/01/11 01:31:12;;;;;;;12.05;5.35;;;-5.60;99.90;;;;;;5042109;28;20037;-75
2024/01/11 01:33:40;;;;;;;8.77;5.22;;;-5.60;99.90;;;;;;5042780;28;20036;-75
2024/01/11 01:36:11;;;;;;;11.75;4.63;;;-5.60;99.90;;;;;;5031062;28;20036;-75
2024/01/11 01:38:37;;;;;;;9.75;3.95;;;-5.60;99.90;;;;;;5036671;28;20573;-75
2024/01/11 01:41:03;;;;;;;13.48;5.10;;;-5.70;99.90;;;;;;5026332;28;20037;-75
2024/01/11 01:43:32;;;;;;;4.30;3.13;;;-5.70;99.90;;;;;;5018831;28;20045;-75
2024/01/11 01:45:59;;;;;;;8.98;5.30;;;-5.70;99.90;;;;;;5059116;28;20836;-75
2024/01/11 01:48:25;;;;;;;10.82;4.65;;;-5.70;99.90;;;;;;5028157;28;20389;-75
2024/01/11 01:50:50;;;;;;;12.77;5.35;;;-5.70;99.90;;;;;;5022831;28;20037;-75
2024/01/11 01:53:19;;;;;;;7.75;4.43;;;-5.70;99.90;;;;;;5040648;28;20036;-75
2024/01/11 01:55:45;;;;;;;8.90;7.03;;;-5.70;99.90;;;;;;5038147;28;20428;-75
2024/01/11 01:58:12;;;;;;;9.38;3.50;;;-5.70;99.90;;;;;;5037756;28;20055;-75
2024/01/11 02:00:41;;;;;;;10.00;3.72;;;-5.70;99.90;;;;;;5038980;28;20120;-75
2024/01/11 02:03:06;;;;;;;18.80;6.13;;;-5.70;99.90;;;;;;5035429;28;20041;-75
2024/01/11 02:05:32;;;;;;;17.08;6.95;;;-5.70;99.90;;;;;;5042626;28;20368;-75
2024/01/11 02:08:00;;;;;;;14.68;4.45;;;-5.80;99.90;;;;;;5033531;28;20041;-75
2024/01/11 02:10:27;;;;;;;10.70;4.25;;;-5.80;99.90;;;;;;5044759;28;20048;-75
2024/01/11 02:12:53;;;;;;;10.18;3.97;;;-5.80;99.90;;;;;;5027612;28;20036;-75
2024/01/11 02:15:19;;;;;;;6.07;2.83;;;-5.80;99.90;;;;;;5039668;28;20056;-75
2024/01/11 02:17:45;;;;;;;9.07;4.72;;;-5.80;99.90;;;;;;5040460;28;20519;-75
2024/01/11 02:20:11;;;;;;;15.60;6.53;;;-5.80;99.90;;;;;;5040297;28;20051;-75
2024/01/11 02:22:42;;;;;;;8.85;4.38;;;-5.80;99.90;;;;;;5021697;28;20108;-75
2024/01/11 02:25:41;;;;;;;7.10;3.95;;;-5.80;99.90;;;;;;5050120;28;20029;-75
2024/01/11 02:28:36;;;;;;;6.95;4.18;;;-5.80;99.90;;;;;;5038747;28;20041;-75
2024/01/11 02:31:23;;;;;;;6.43;3.15;;;-5.90;99.90;;;;;;5045805;28;20044;-75
2024/01/11 02:34:16;;;;;;;12.13;4.80;;;-5.80;99.90;;;;;;5039528;28;20037;-75
2024/01/11 02:37:13;;;;;;;10.07;3.72;;;-5.90;99.90;;;;;;5017401;28;20049;-75
2024/01/11 02:40:07;;;;;;;5.65;3.85;;;-5.90;99.90;;;;;;5038164;28;20057;-75
2024/01/11 02:43:16;;;;;;;8.98;3.70;;;-5.90;99.90;;;;;;5042587;28;20048;-75
2024/01/11 02:46:13;;;;;;;10.73;4.05;;;-5.90;99.90;;;;;;5037253;28;20115;-75
2024/01/11 02:48:55;;;;;;;6.45;3.78;;;-5.90;99.90;;;;;;5032312;28;20084;-75
2024/01/11 02:51:38;;;;;;;11.82;6.15;;;-5.80;99.90;;;;;;5023743;28;20047;-75
2024/01/11 02:54:18;;;;;;;10.95;5.32;;;-5.80;99.90;;;;;;5046764;28;20033;-75
2024/01/11 02:57:04;;;;;;;5.65;3.05;;;-5.80;99.90;;;;;;5035882;28;20068;-75
2024/01/11 02:59:39;;;;;;;11.90;5.25;;;-5.90;99.90;;;;;;5036795;28;20512;-75
2024/01/11 03:02:32;;;;;;;11.85;4.70;;;-5.90;99.90;;;;;;5040585;28;20408;-75
2024/01/11 03:05:35;;;;;;;18.35;5.45;;;-5.90;99.90;;;;;;5032556;28;20045;-75
2024/01/11 03:08:30;;;;;;;8.13;3.53;;;-5.90;99.90;;;;;;5041548;28;20056;-75
2024/01/11 03:11:29;;;;;;;10.85;5.30;;;-6.00;99.90;;;;;;5038252;28;23337;-75
2024/01/11 03:14:28;;;;;;;6.97;3.63;;;-6.00;99.90;;;;;;5039224;28;20048;-75
2024/01/11 03:16:57;;;;;;;7.72;4.82;;;-6.00;99.90;;;;;;5053926;28;20045;-75
2024/01/11 03:19:23;;;;;;;9.00;4.75;;;-6.00;99.90;;;;;;5038137;28;20420;-75
2024/01/11 03:21:48;;;;;;;8.65;4.32;;;-6.10;99.90;;;;;;5037864;28;20048;-75
2024/01/11 03:24:29;;;;;;;8.98;4.20;;;-6.10;99.90;;;;;;5038209;28;20610;-75
2024/01/11 03:27:25;;;;;;;2.92;2.58;;;-6.20;99.90;;;;;;5038451;28;20512;-75
2024/01/11 03:30:12;;;;;;;6.63;4.60;;;-6.20;99.90;;;;;;5041331;28;20409;-75
2024/01/11 03:33:05;;;;;;;7.45;3.63;;;-6.20;99.90;;;;;;5042064;28;20475;-75
2024/01/11 03:35:57;;;;;;;14.45;5.00;;;-6.20;99.90;;;;;;5039870;28;20056;-75
2024/01/11 03:38:51;;;;;;;5.45;3.55;;;-6.20;99.90;;;;;;5042734;28;20041;-75
2024/01/11 03:41:30;;;;;;;11.98;5.78;;;-6.20;99.90;;;;;;5036112;28;20040;-75
2024/01/11 03:43:56;;;;;;;14.38;5.18;;;-6.20;99.90;;;;;;5041928;28;20036;-75
2024/01/11 03:46:22;;;;;;;6.53;4.45;;;-6.20;99.90;;;;;;5041453;28;20395;-75
2024/01/11 03:48:48;;;;;;;11.68;4.93;;;-6.20;99.90;;;;;;5025694;28;20086;-75
2024/01/11 03:51:14;;;;;;;12.63;4.32;;;-6.20;99.90;;;;;;5028520;28;20413;-75
2024/01/11 03:53:39;;;;;;;12.43;6.68;;;-6.20;99.90;;;;;;5041763;28;20059;-75
2024/01/11 03:56:05;;;;;;;13.40;5.60;;;-6.20;99.90;;;;;;5042110;28;20052;-75
2024/01/11 03:58:31;;;;;;;5.63;4.13;;;-6.20;99.90;;;;;;5039852;28;20662;-75
2024/01/11 04:00:57;;;;;;;10.35;5.30;;;-6.20;99.90;;;;;;5039701;28;20120;-75
2024/01/11 04:03:23;;;;;;;10.65;6.15;;;-6.20;99.90;;;;;;5038007;28;20120;-75
2024/01/11 04:05:49;;;;;;;10.38;6.05;;;-6.20;99.90;;;;;;5045151;28;20140;-75
2024/01/11 04:08:15;;;;;;;9.48;5.15;;;-6.20;99.90;;;;;;5045421;28;20090;-75
2024/01/11 04:10:40;;;;;;;4.13;2.47;;;-6.20;99.90;;;;;;5014951;28;20033;-75
2024/01/11 04:13:09;;;;;;;5.88;3.42;;;-6.20;99.90;;;;;;5040882;28;20040;-75
2024/01/11 04:15:35;;;;;;;8.15;4.88;;;-6.20;99.90;;;;;;5035851;28;20095;-75
2024/01/11 04:18:01;;;;;;;7.00;3.08;;;-6.20;99.90;;;;;;5024332;28;20120;-75
2024/01/11 04:20:27;;;;;;;12.05;3.95;;;-6.20;99.90;;;;;;5047174;28;20041;-75
2024/01/11 04:22:53;;;;;;;10.90;4.70;;;-6.30;99.90;;;;;;5037033;28;20033;-75
2024/01/11 04:25:20;;;;;;;9.57;4.45;;;-6.30;99.90;;;;;;5040992;28;20036;-76
2024/01/11 04:27:46;;;;;;;7.40;3.47;;;-6.30;99.90;;;;;;5040967;28;20126;-75
2024/01/11 04:30:12;;;;;;;7.97;4.85;;;-6.30;99.90;;;;;;5044178;28;20488;-76
2024/01/11 04:32:37;;;;;;;15.18;4.18;;;-6.30;99.90;;;;;;5044484;28;20059;-75
2024/01/11 04:35:04;;;;;;;3.92;2.97;;;-6.30;99.90;;;;;;5027289;28;20485;-75
2024/01/11 04:37:29;;;;;;;8.50;3.92;;;-6.30;99.90;;;;;;5045922;28;20381;-76
2024/01/11 04:39:59;;;;;;;7.20;4.55;;;-6.40;99.90;;;;;;5028855;28;20103;-75
2024/01/11 04:42:29;;;;;;;5.90;3.78;;;-6.40;99.90;;;;;;5040132;28;20052;-76
2024/01/11 04:44:55;;;;;;;8.98;2.95;;;-6.40;99.90;;;;;;5040546;28;20037;-75
2024/01/11 04:47:21;;;;;;;7.63;4.25;;;-6.40;99.90;;;;;;5040447;28;20049;-76
2024/01/11 04:49:46;;;;;;;2.97;1.70;;;-6.40;99.90;;;;;;5040133;28;20041;-75
2024/01/11 04:52:12;;;;;;;11.90;6.38;;;-6.40;99.90;;;;;;5036449;28;20044;-75
2024/01/11 04:54:38;;;;;;;4.30;3.67;;;-6.40;99.90;;;;;;5019549;28;20079;-75
2024/01/11 04:57:05;;;;;;;8.63;3.60;;;-6.40;99.90;;;;;;5045064;28;20036;-75
2024/01/11 04:59:31;;;;;;;5.93;3.83;;;-6.40;99.90;;;;;;5024244;28;20040;-75
2024/01/11 05:01:57;;;;;;;13.32;5.65;;;-6.30;99.90;;;;;;5042903;28;20447;-75
2024/01/11 05:04:22;;;;;;;12.73;3.97;;;-6.30;99.90;;;;;;5044055;28;20124;-75
2024/01/11 05:06:48;;;;;;;9.10;3.70;;;-6.30;99.90;;;;;;5044341;28;20037;-75
2024/01/11 05:09:14;;;;;;;8.93;3.22;;;-6.30;99.90;;;;;;5042005;28;20147;-75
2024/01/11 05:11:40;;;;;;;11.20;5.65;;;-6.30;99.90;;;;;;5045431;28;20040;-75
2024/01/11 05:14:06;;;;;;;8.90;3.80;;;-6.30;99.90;;;;;;5048420;28;20033;-75
2024/01/11 05:16:32;;;;;;;14.15;4.15;;;-6.30;99.90;;;;;;5042953;28;20536;-75
2024/01/11 05:18:58;;;;;;;5.18;3.60;;;-6.30;99.90;;;;;;5042756;28;20056;-76
2024/01/11 05:21:25;;;;;;;12.93;3.72;;;-6.30;99.90;;;;;;5044116;28;20567;-76
2024/01/11 05:23:52;;;;;;;4.45;3.38;;;-6.30;99.90;;;;;;5036249;28;20037;-75
2024/01/11 05:26:19;;;;;;;10.80;4.72;;;-6.40;99.90;;;;;;5044239;28;20049;-75
2024/01/11 05:28:45;;;;;;;12.60;4.28;;;-6.40;99.90;;;;;;5039616;28;20037;-75
2024/01/11 05:31:12;;;;;;;9.38;6.45;;;-6.40;99.90;;;;;;5046577;28;20051;-76
2024/01/11 05:33:39;;;;;;;14.23;6.32;;;-6.30;99.90;;;;;;5042774;28;20072;-76
2024/01/11 05:36:05;;;;;;;10.30;3.63;;;-6.20;99.90;;;;;;5043363;28;20103;-76
2024/01/11 05:38:32;;;;;;;11.77;4.78;;;-6.10;99.90;;;;;;5044282;28;20037;-76
2024/01/11 05:40:57;;;;;;;7.82;4.93;;;-6.00;99.90;;;;;;5027257;28;20037;-76
2024/01/11 05:43:23;;;;;;;17.27;5.82;;;-5.90;99.90;;;;;;5044185;28;20037;-76
2024/01/11 05:45:51;;;;;;;11.75;5.80;;;-5.80;99.90;;;;;;5030231;28;20043;-76
2024/01/11 05:48:17;;;;;;;17.27;5.22;;;-5.60;99.90;;;;;;5047233;28;20080;-75
2024/01/11 05:50:46;;;;;;;8.35;4.47;;;-5.50;99.90;;;;;;5044651;28;20070;-76
2024/01/11 05:53:12;;;;;;;15.25;7.07;;;-5.40;99.90;;;;;;5027229;28;20038;-76
2024/01/11 05:55:41;;;;;;;11.75;5.22;;;-5.30;99.90;;;;;;5035895;28;20044;-75
2024/01/11 05:58:07;;;;;;;11.67;7.43;;;-5.20;99.90;;;;;;5023013;28;20041;-75
2024/01/11 06:00:33;;;;;;;13.23;6.97;;;-5.10;99.90;;;;;;5043602;28;20051;-76
2024/01/11 06:02:59;;;;;;;11.48;6.57;;;-5.00;99.90;;;;;;5027071;28;20032;-75
2024/01/11 06:05:26;;;;;;;10.65;5.97;;;-4.90;99.90;;;;;;5039631;28;20378;-76
2024/01/11 06:07:52;;;;;;;16.85;6.63;;;-4.80;99.90;;;;;;5038559;28;20083;-75
2024/01/11 06:10:18;;;;;;;11.02;5.57;;;-4.70;99.90;;;;;;5038611;28;22421;-75
2024/01/11 06:12:47;;;;;;;16.33;5.28;;;-4.60;99.90;;;;;;5046101;28;20480;-75
2024/01/11 06:15:13;;;;;;;13.93;6.55;;;-4.50;99.90;;;;;;5043835;28;20377;-75
2024/01/11 06:17:40;;;;;;;16.10;6.55;;;-4.40;99.90;;;;;;5037317;28;20048;-75
2024/01/11 06:20:06;;;;;;;19.20;6.68;;;-4.30;99.90;;;;;;5041699;28;20556;-75
2024/01/11 06:22:32;;;;;;;14.35;5.78;;;-4.20;99.90;;;;;;5039142;28;20120;-75
2024/01/11 06:24:59;;;;;;;10.40;4.45;;;-4.10;99.90;;;;;;5043557;28;20191;-75
2024/01/11 06:27:25;;;;;;;18.55;7.15;;;-4.00;99.90;;;;;;5032792;28;20539;-75
2024/01/11 06:29:51;;;;;;;13.40;6.45;;;-4.00;99.90;;;;;;5043384;28;20511;-75
2024/01/11 06:32:17;;;;;;;23.15;7.60;;;-3.90;99.90;;;;;;5043662;28;20076;-75
2024/01/11 06:34:45;;;;;;;13.25;7.32;;;-3.80;99.90;;;;;;5042476;28;20102;-75
2024/01/11 06:37:12;;;;;;;10.85;5.65;;;-3.70;99.90;;;;;;5040714;28;20048;-75
2024/01/11 06:39:38;;;;;;;16.33;7.50;;;-3.60;99.90;;;;;;5039561;28;20037;-75
2024/01/11 06:42:04;;;;;;;13.80;6.40;;;-3.60;99.90;;;;;;5038762;28;20029;-75
2024/01/11 06:44:33;;;;;;;20.67;7.28;;;-3.50;99.90;;;;;;5039129;28;20041;-75
2024/01/11 06:47:01;;;;;;;19.02;9.35;;;-3.50;99.90;;;;;;5043572;28;20402;-74
2024/01/11 06:49:27;;;;;;;18.02;8.25;;;-3.40;99.90;;;;;;5039139;28;20035;-74
2024/01/11 06:51:53;;;;;;;20.27;8.85;;;-3.30;99.90;;;;;;5045540;28;20047;-74
2024/01/11 06:54:19;;;;;;;30.25;9.57;;;-3.30;99.90;;;;;;5040067;28;20115;-74
2024/01/11 06:56:45;;;;;;;17.58;10.55;;;-3.20;99.90;;;;;;5038693;28;20060;-74
2024/01/11 06:59:11;;;;;;;20.85;7.85;;;-3.20;99.90;;;;;;5037019;28;20036;-74
2024/01/11 07:01:37;;;;;;;15.93;7.95;;;-3.20;99.90;;;;;;5028831;28;20468;-74
2024/01/11 07:04:03;;;;;;;13.02;7.25;;;-3.10;99.90;;;;;;5035228;28;20092;-74
2024/01/11 07:06:28;;;;;;;14.65;6.93;;;-3.00;99.90;;;;;;5021317;28;20036;-74
2024/01/11 07:08:54;;;;;;;13.20;7.50;;;-3.00;99.90;;;;;;5038629;28;20116;-74
2024/01/11 07:11:20;;;;;;;15.15;6.07;;;-2.90;99.90;;;;;;5034535;28;20056;-74
2024/01/11 07:13:46;;;;;;;20.45;8.40;;;-2.90;99.90;;;;;;5016065;28;20078;-73
2024/01/11 07:16:12;;;;;;;13.02;6.10;;;-2.80;99.90;;;;;;5031235;28;20084;-73
2024/01/11 07:18:38;;;;;;;21.80;7.53;;;-2.80;99.90;;;;;;5016510;28;20045;-74
2024/01/11 07:21:04;;;;;;;18.60;7.25;;;-2.80;99.90;;;;;;5033423;28;20048;-73
2024/01/11 07:23:29;;;;;;;12.98;7.35;;;-2.80;99.90;;;;;;5032683;28;20037;-73
2024/01/11 07:25:55;;;;;;;17.75;8.48;;;-2.70;99.90;;;;;;5017824;28;20068;-73
2024/01/11 07:28:25;;;;;;;16.48;7.78;;;-2.70;99.90;;;;;;5032104;28;20068;-73
2024/01/11 07:30:54;;;;;;;22.25;8.60;;;-2.60;99.90;;;;;;5017035;28;20045;-73
2024/01/11 07:33:20;;;;;;;21.70;8.77;;;-2.60;99.90;;;;;;5016889;28;20088;-73
2024/01/11 07:35:47;;;;;;;17.70;7.35;;;-2.60;99.90;;;;;;5037285;28;20085;-73
2024/01/11 07:38:13;;;;;;;18.67;7.65;;;-2.50;99.90;;;;;;5030567;28;20120;-73
2024/01/11 07:40:39;;;;;;;15.55;7.15;;;-2.50;99.90;;;;;;5031528;28;20174;-73
2024/01/11 07:43:05;;;;;;;28.77;9.57;;;-2.50;99.90;;;;;;5033565;28;20108;-73
2024/01/11 07:45:31;;;;;;;16.70;8.60;;;-2.40;99.90;;;;;;5032265;28;20402;-73
2024/01/11 07:47:56;;;;;;;21.27;7.57;;;-2.40;99.90;;;;;;5016404;28;20041;-75
2024/01/11 07:50:22;;;;;;;15.18;8.30;;;-2.30;99.90;;;;;;5042203;28;20115;-74
2024/01/11 07:52:48;;;;;;;16.83;7.63;;;-2.30;99.90;;;;;;5040337;28;20437;-74
2024/01/11 07:55:14;;;;;;;13.48;7.38;;;-2.30;99.90;;;;;;5021959;28;20059;-73
2024/01/11 07:57:40;;;;;;;21.17;9.57;;;-2.20;99.90;;;;;;5037307;28;20037;-74
2024/01/11 08:00:07;;;;;;;17.15;9.57;;;-2.20;99.90;;;;;;5040633;28;20041;-71
2024/01/11 08:02:34;;;;;;;22.13;10.43;;;-2.20;99.90;;;;;;5036394;28;20071;-71
2024/01/11 08:05:00;;;;;;;18.70;9.38;;;-2.20;99.90;;;;;;5036978;28;20098;-73
2024/01/11 08:07:30;;;;;;;25.70;14.45;;;-2.10;99.90;;;;;;5043752;28;20087;-75
2024/01/11 08:09:56;;;;;;;24.73;11.18;;;-2.10;99.90;;;;;;5041309;28;20044;-77
2024/01/11 08:12:22;;;;;;;13.05;8.15;;;-2.10;99.90;;;;;;5022539;28;20040;-75
2024/01/11 08:14:48;;;;;;;22.05;10.57;;;-2.00;99.90;;;;;;5045367;28;20044;-72
2024/01/11 08:17:14;;;;;;;20.33;8.45;;;-2.00;99.90;;;;;;5040782;28;20590;-71
2024/01/11 08:19:42;;;;;;;25.15;11.15;;;-1.90;99.90;;;;;;5042047;28;20485;-73
2024/01/11 08:22:08;;;;;;;20.45;8.32;;;-1.90;99.90;;;;;;5040756;28;20040;-73
2024/01/11 08:24:35;;;;;;;12.68;7.72;;;-1.90;99.90;;;;;;5041993;28;20032;-72
2024/01/11 08:27:01;;;;;;;20.70;9.43;;;-1.90;99.90;;;;;;5041034;28;20037;-72
2024/01/11 08:29:27;;;;;;;19.65;7.60;;;-1.80;99.90;;;;;;5033793;28;20048;-72
2024/01/11 08:31:54;;;;;;;16.33;8.25;;;-1.80;99.90;;;;;;5033805;28;20045;-71
2024/01/11 08:34:21;;;;;;;18.02;7.97;;;-1.80;99.90;;;;;;5020044;28;20052;-71
2024/01/11 08:36:47;;;;;;;13.57;7.07;;;-1.70;99.90;;;;;;5019398;28;20127;-71
2024/01/11 08:39:14;;;;;;;18.40;10.15;;;-1.70;99.90;;;;;;5033900;28;20623;-72
2024/01/11 08:41:40;;;;;;;17.45;7.88;;;-1.70;99.90;;;;;;5040076;28;20488;-72
2024/01/11 08:44:06;;;;;;;21.95;7.82;;;-1.60;99.90;;;;;;5041631;28;20040;-72
2024/01/11 08:46:33;;;;;;;17.65;7.80;;;-1.60;99.90;;;;;;5042776;28;20386;-71
2024/01/11 08:49:03;;;;;;;18.60;8.57;;;-1.50;99.90;;;;;;5037201;28;20420;-71
2024/01/11 08:51:45;;;;;;;26.33;9.57;;;-1.50;99.90;;;;;;5038020;28;20124;-72
2024/01/11 08:54:27;;;;;;;16.45;7.20;;;-1.40;99.90;;;;;;5036764;28;20049;-71
2024/01/11 08:56:57;;;;;;;16.27;8.75;;;-1.40;99.90;;;;;;5034503;28;20063;-71
2024/01/11 08:59:24;;;;;;;26.83;8.85;;;-1.30;99.90;;;;;;5035734;28;20517;-71
2024/01/11 09:01:54;;;;;;;18.75;7.93;;;-1.30;99.90;;;;;;5033259;28;20044;-71
2024/01/11 09:04:20;;;;;;;16.20;8.30;;;-1.30;99.90;;;;;;5018035;28;20036;-72
2024/01/11 09:06:46;;;;;;;21.00;8.55;;;-1.20;99.90;;;;;;5028584;28;20500;-71
2024/01/11 09:09:13;;;;;;;15.18;8.18;;;-1.20;99.90;;;;;;5035969;28;20493;-71
2024/01/11 09:11:42;;;;;;;19.88;8.93;;;-1.10;99.90;;;;;;5033660;28;20040;-72
2024/01/11 09:14:11;;;;;;;9.65;6.07;;;-1.00;99.90;;;;;;5047730;28;20119;-72
2024/01/11 09:16:37;;;;;;;16.60;7.38;;;-1.00;99.90;;;;;;5030156;28;20041;-72
2024/01/11 09:19:03;;;;;;;18.70;8.00;;;-0.90;99.90;;;;;;5029950;28;20103;-72
2024/01/11 09:21:29;;;;;;;17.45;9.20;;;-0.90;99.90;;;;;;5022787;28;20041;-72
2024/01/11 09:23:55;;;;;;;14.60;7.40;;;-0.80;99.90;;;;;;5001715;28;20048;-72
2024/01/11 09:26:22;;;;;;;23.33;9.20;;;-0.80;99.90;;;;;;5018093;28;20124;-72
2024/01/11 09:28:48;;;;;;;21.55;9.13;;;-0.70;99.90;;;;;;5013946;28;20044;-71
2024/01/11 09:31:14;;;;;;;20.85;9.15;;;-0.60;99.90;;;;;;5023896;28;20126;-70
2024/01/11 09:33:42;;;;;;;19.55;8.73;;;-0.60;99.90;;;;;;5022706;28;20041;-73
2024/01/11 09:36:08;;;;;;;15.35;7.65;;;-0.60;99.90;;;;;;5025761;28;20049;-71
2024/01/11 09:38:34;;;;;;;20.13;8.75;;;-0.50;99.90;;;;;;5023429;28;20050;-72
2024/01/11 09:41:18;;;;;;;21.25;8.98;;;-0.40;99.90;;;;;;5007444;28;20041;-72
2024/01/11 09:43:46;;;;;;;21.70;9.40;;;-0.40;99.90;;;;;;5024296;28;20408;-71
2024/01/11 09:46:12;;;;;;;18.67;10.20;;;-0.30;99.90;;;;;;5039149;28;20366;-72
2024/01/11 09:48:43;;;;;;;17.77;8.75;;;-0.30;99.90;;;;;;5024520;28;20044;-73
2024/01/11 09:51:13;;;;;;;24.20;10.50;;;-0.30;99.90;;;;;;5014191;28;20359;-73
2024/01/11 09:53:42;;;;;;;21.23;9.45;;;-0.20;99.90;;;;;;5028235;28;20037;-72
2024/01/11 09:56:09;;;;;;;18.33;8.63;;;-0.20;99.90;;;;;;5035726;28;20482;-72
2024/01/11 09:58:39;;;;;;;29.02;9.57;;;-0.10;99.90;;;;;;5021742;28;20041;-72
2024/01/11 10:01:10;;;;;;;15.27;9.20;;;0.00;99.90;;;;;;5035549;28;20481;-72
2024/01/11 10:03:36;;;;;;;21.98;10.38;;;0.00;99.90;;;;;;5024850;28;20049;-72
2024/01/11 10:06:05;;;;;;;20.38;9.52;;;0.00;99.90;;;;;;5024405;28;20527;-72
2024/01/11 10:08:40;;;;;;;19.95;9.25;;;0.10;99.90;;;;;;5041326;28;20076;-72
2024/01/11 10:11:09;;;;;;;18.15;9.43;;;0.20;99.90;;;;;;5027054;28;20145;-73
2024/01/11 10:13:38;;;;;;;18.55;8.85;;;0.30;99.90;;;;;;5042546;28;20044;-72
2024/01/11 10:16:09;;;;;;;20.88;9.63;;;0.40;99.90;;;;;;5044399;28;20910;-72
2024/01/11 10:18:36;;;;;;;24.73;9.55;;;0.40;99.90;;;;;;5024372;28;20071;-71
2024/01/11 10:21:03;;;;;;;19.52;8.68;;;0.40;99.90;;;;;;5020971;28;20110;-73
2024/01/11 10:23:33;;;;;;;18.10;8.80;;;0.50;99.90;;;;;;5042943;28;20048;-72
2024/01/11 10:26:40;;;;;;;21.83;9.00;;;0.60;99.90;;;;;;5036273;28;20040;-72
2024/01/11 10:29:10;;;;;;;12.27;6.65;;;0.60;99.90;;;;;;5024583;28;20041;-72
2024/01/11 10:31:38;;;;;;;15.02;6.70;;;0.70;99.90;;;;;;5040438;28;20497;-72
2024/01/11 10:34:06;;;;;;;15.88;8.25;;;0.70;99.90;;;;;;5036424;28;20041;-72
2024/01/11 10:36:33;;;;;;;17.85;9.10;;;0.80;99.90;;;;;;5023697;28;20048;-72
2024/01/11 10:39:05;;;;;;;17.88;8.25;;;0.90;99.90;;;;;;5026001;28;20041;-75
2024/01/11 10:41:41;;;;;;;21.08;8.15;;;0.90;99.90;;;;;;5026749;28;20041;-71
2024/01/11 10:44:30;;;;;;;15.45;7.20;;;1.00;99.90;;;;;;5042600;28;20574;-71
2024/01/11 10:46:57;;;;;;;18.93;9.07;;;1.10;99.90;;;;;;5009429;28;20072;-71
2024/01/11 10:49:25;;;;;;;17.10;9.35;;;1.10;99.90;;;;;;5022083;28;20095;-71
2024/01/11 10:52:05;;;;;;;26.25;8.65;;;1.10;99.90;;;;;;5005612;28;20144;-71
2024/01/11 10:54:33;;;;;;;12.65;6.68;;;1.10;99.90;;;;;;5023374;28;20115;-72
2024/01/11 10:57:00;;;;;;;19.40;8.38;;;1.10;99.90;;;;;;5038936;28;20123;-72
2024/01/11 10:59:27;;;;;;;20.33;9.00;;;1.20;99.90;;;;;;5036971;28;20053;-72
2024/01/11 11:02:00;;;;;;;18.90;8.45;;;1.20;99.90;;;;;;5032757;28;20045;-71
2024/01/11 11:04:27;;;;;;;28.05;8.68;;;1.20;99.90;;;;;;5024187;28;20049;-71
2024/01/11 11:06:57;;;;;;;20.70;8.35;;;1.20;99.90;;;;;;5022658;28;20045;-71
2024/01/11 11:09:25;;;;;;;16.35;8.07;;;1.30;99.90;;;;;;5024144;28;20049;-71
2024/01/11 11:11:56;;;;;;;15.18;7.75;;;1.30;99.90;;;;;;5007753;28;20037;-71
2024/01/11 11:14:22;;;;;;;14.13;6.63;;;1.30;99.90;;;;;;5021035;28;20420;-69
2024/01/11 11:16:48;;;;;;;16.08;7.43;;;1.30;99.90;;;;;;5036645;28;20053;-69
2024/01/11 11:19:15;;;;;;;14.90;6.57;;;1.40;99.90;;;;;;5022311;28;20099;-70
2024/01/11 11:21:45;;;;;;;13.55;7.72;;;1.40;99.90;;;;;;5036221;28;20076;-70
2024/01/11 11:24:12;;;;;;;18.98;7.45;;;1.40;99.90;;;;;;5020419;28;20041;-70
2024/01/11 11:26:38;;;;;;;16.02;6.78;;;1.40;99.90;;;;;;5020241;28;20049;-70
2024/01/11 11:29:05;;;;;;;16.77;6.75;;;1.50;99.90;;;;;;5024846;28;20047;-70
2024/01/11 11:31:42;;;;;;;18.75;8.50;;;1.50;99.90;;;;;;5012198;28;20430;-72
2024/01/11 11:34:11;;;;;;;23.20;7.90;;;1.50;99.90;;;;;;5024114;28;20436;-70
2024/01/11 11:36:55;;;;;;;15.52;6.18;;;1.60;99.90;;;;;;5040518;28;20137;-70
2024/01/11 11:39:21;;;;;;;15.00;6.03;;;1.60;99.90;;;;;;5048081;28;20049;-70
2024/01/11 11:41:49;;;;;;;12.80;6.15;;;1.60;99.90;;;;;;5015539;28;20041;-70
2024/01/11 11:44:16;;;;;;;12.50;5.63;;;1.70;99.90;;;;;;5023989;28;20034;-70
2024/01/11 11:46:43;;;;;;;11.10;5.38;;;1.70;99.90;;;;;;5041470;28;20144;-70
2024/01/11 11:49:10;;;;;;;13.07;5.95;;;1.70;99.90;;;;;;5024572;28;20064;-70
2024/01/11 11:51:39;;;;;;;10.98;5.57;;;1.70;99.90;;;;;;5008403;28;20045;-70
2024/01/11 11:54:06;;;;;;;14.85;6.90;;;1.60;99.90;;;;;;5038931;28;20045;-69
2024/01/11 11:56:33;;;;;;;15.27;7.35;;;1.70;99.90;;;;;;5025910;28;20139;-70
2024/01/11 11:59:02;;;;;;;15.63;5.72;;;1.70;99.90;;;;;;5024824;28;20041;-69
2024/01/11 12:01:28;;;;;;;16.17;7.32;;;1.70;99.90;;;;;;5041211;28;20054;-69
2024/01/11 12:03:54;;;;;;;20.13;7.47;;;1.70;99.90;;;;;;5024362;28;20033;-69
2024/01/11 12:06:24;;;;;;;13.55;5.70;;;1.80;99.90;;;;;;5024442;28;20048;-70
2024/01/11 12:08:53;;;;;;;16.45;6.45;;;1.80;99.90;;;;;;5023742;28;20391;-71
2024/01/11 12:11:21;;;;;;;17.83;7.13;;;1.90;99.90;;;;;;5026630;28;20041;-70
2024/01/11 12:13:48;;;;;;;16.17;6.43;;;1.80;99.90;;;;;;5016405;28;20041;-69
2024/01/11 12:16:14;;;;;;;18.95;6.55;;;1.80;99.90;;;;;;5025814;28;20417;-68
2024/01/11 12:18:51;;;;;;;14.57;6.90;;;1.80;99.90;;;;;;5022853;28;20080;-70
2024/01/11 12:21:21;;;;;;;12.63;5.38;;;1.80;99.90;;;;;;5025606;28;20044;-71
2024/01/11 12:23:55;;;;;;;;;;;1.80;99.90;;;;;;5025239;28;20111;-70
2024/01/11 12:26:22;;;;;;;11.38;4.75;;;1.80;99.90;;;;;;5023632;28;19924;-71
2024/01/11 12:28:50;;;;;;;10.88;5.47;;;1.80;99.90;;;;;;5041674;28;20037;-70
2024/01/11 12:31:19;;;;;;;12.93;5.47;;;1.80;99.90;;;;;;5007381;28;20470;-70
2024/01/11 12:33:48;;;;;;;18.70;7.97;;;1.80;99.90;;;;;;5024519;28;20068;-70
2024/01/11 12:36:16;;;;;;;13.60;5.20;;;1.80;99.90;;;;;;5041820;28;20106;-70
2024/01/11 12:38:49;;;;;;;11.02;5.55;;;1.80;99.90;;;;;;5040016;28;20037;-70
2024/01/11 12:41:16;;;;;;;;;;;1.80;99.90;;;;;;5023096;28;20041;-70
2024/01/11 12:43:42;;;;;;;12.55;6.05;;;1.80;99.90;;;;;;5009989;28;19939;-71
2024/01/11 12:46:10;;;;;;;12.65;5.60;;;1.80;99.90;;;;;;5022472;28;20043;-71
2024/01/11 12:48:36;;;;;;;15.48;5.35;;;1.70;99.90;;;;;;5025222;28;20459;-71
2024/01/11 12:51:05;;;;;;;15.20;6.95;;;1.70;99.90;;;;;;5015282;28;20035;-71